createdAt,value
2023-10-21T00:01:56.420Z,16.13
2023-10-21T00:04:24.929Z,11.75
2023-10-21T00:06:52.321Z,7.22
2023-10-21T00:09:20.085Z,14.95
2023-10-21T00:11:47.419Z,9.02
2023-10-21T00:14:15.678Z,9.32
2023-10-21T00:16:42.903Z,10.43
2023-10-21T00:19:12.201Z,10.30
2023-10-21T00:21:40.530Z,14.10
2023-10-21T00:24:08.552Z,11.88
2023-10-21T00:26:49.783Z,15.90
2023-10-21T00:29:18.049Z,7.13
2023-10-21T00:31:45.854Z,10.35
2023-10-21T00:34:13.578Z,20.83
2023-10-21T00:36:40.995Z,9.68
2023-10-21T00:39:14.454Z,7.03
2023-10-21T00:41:41.857Z,12.57
2023-10-21T00:44:10.017Z,9.00
2023-10-21T00:46:38.006Z,9.10
2023-10-21T00:49:05.957Z,8.25
2023-10-21T00:51:36.792Z,12.25
2023-10-21T00:54:06.740Z,7.97
2023-10-21T00:56:41.068Z,12.65
2023-10-21T00:59:15.593Z,7.68
2023-10-21T01:01:45.422Z,9.07
2023-10-21T01:04:15.872Z,17.13
2023-10-21T01:06:44.885Z,11.38
2023-10-21T01:09:15.598Z,9.77
2023-10-21T01:11:43.679Z,17.58
2023-10-21T01:14:11.445Z,9.05
2023-10-21T01:16:39.438Z,19.13
2023-10-21T01:19:08.879Z,10.15
2023-10-21T01:21:36.123Z,7.40
2023-10-21T01:24:04.964Z,5.32
2023-10-21T01:26:32.498Z,8.93
2023-10-21T01:29:01.048Z,6.70
2023-10-21T01:31:33.951Z,10.65
2023-10-21T01:34:03.332Z,7.90
2023-10-21T01:36:30.722Z,7.38
2023-10-21T01:38:58.378Z,9.80
2023-10-21T01:41:25.787Z,11.88
2023-10-21T01:44:12.190Z,10.32
2023-10-21T01:46:39.684Z,14.77
2023-10-21T01:49:07.297Z,7.63
2023-10-21T01:51:34.513Z,10.80
2023-10-21T01:54:02.142Z,6.97
2023-10-21T01:56:29.424Z,4.75
2023-10-21T01:58:57.923Z,9.20
2023-10-21T02:01:25.342Z,11.13
2023-10-21T02:03:53.846Z,4.90
2023-10-21T02:06:21.229Z,11.98
2023-10-21T02:08:48.886Z,14.07
2023-10-21T02:11:21.310Z,12.82
2023-10-21T02:13:49.003Z,11.23
2023-10-21T02:16:16.254Z,11.00
2023-10-21T02:18:44.146Z,12.05
2023-10-21T02:21:11.657Z,6.97
2023-10-21T02:23:39.408Z,12.75
2023-10-21T02:26:10.667Z,11.27
2023-10-21T02:28:38.224Z,10.20
2023-10-21T02:31:05.536Z,11.15
2023-10-21T02:33:33.319Z,14.95
2023-10-21T02:36:00.829Z,13.88
2023-10-21T02:38:28.423Z,12.25
2023-10-21T02:40:55.835Z,10.98
2023-10-21T02:43:23.927Z,13.02
2023-10-21T02:45:51.334Z,12.32
2023-10-21T02:48:19.007Z,9.07
2023-10-21T02:50:46.314Z,9.43
2023-10-21T02:53:13.867Z,9.30
2023-10-21T02:55:41.078Z,12.07
2023-10-21T02:58:08.710Z,10.40
2023-10-21T03:00:35.972Z,14.65
2023-10-21T03:03:03.948Z,7.95
2023-10-21T03:05:31.354Z,10.18
2023-10-21T03:07:58.954Z,11.23
2023-10-21T03:10:26.264Z,6.90
2023-10-21T03:12:53.853Z,8.55
2023-10-21T03:15:21.104Z,10.10
2023-10-21T03:17:48.930Z,12.23
2023-10-21T03:20:17.775Z,12.98
2023-10-21T03:22:45.730Z,10.77
2023-10-21T03:25:13.054Z,12.32
2023-10-21T03:27:40.649Z,12.75
2023-10-21T03:30:08.962Z,11.18
2023-10-21T03:32:37.535Z,13.55
2023-10-21T03:35:05.645Z,12.60
2023-10-21T03:37:35.377Z,7.22
2023-10-21T03:40:07.160Z,13.27
2023-10-21T03:42:35.123Z,9.48
2023-10-21T03:45:03.373Z,14.32
2023-10-21T03:47:31.052Z,9.73
2023-10-21T03:49:59.027Z,8.07
2023-10-21T03:52:26.643Z,9.98
2023-10-21T03:54:53.865Z,8.32
2023-10-21T03:57:23.134Z,11.93
2023-10-21T03:59:50.757Z,25.73
2023-10-21T04:02:18.337Z,11.90
2023-10-21T04:04:45.663Z,17.58
2023-10-21T04:07:13.431Z,10.00
2023-10-21T04:09:40.930Z,11.43
2023-10-21T04:12:08.790Z,13.07
2023-10-21T04:14:36.314Z,9.70
2023-10-21T04:17:04.307Z,13.18
2023-10-21T04:19:31.500Z,7.15
2023-10-21T04:22:00.189Z,10.30
2023-10-21T04:24:27.612Z,6.82
2023-10-21T04:26:55.678Z,19.40
2023-10-21T04:29:23.044Z,11.05
2023-10-21T04:31:50.592Z,8.13
2023-10-21T04:34:17.760Z,7.28
2023-10-21T04:36:45.304Z,14.57
2023-10-21T04:39:12.573Z,7.32
2023-10-21T04:41:40.417Z,12.90
2023-10-21T04:44:08.490Z,10.48
2023-10-21T04:46:36.079Z,10.82
2023-10-21T04:49:03.491Z,29.30
2023-10-21T04:51:31.046Z,6.00
2023-10-21T04:53:58.616Z,13.48
2023-10-21T04:56:29.366Z,11.50
2023-10-21T04:58:56.825Z,15.68
2023-10-21T05:01:24.544Z,21.65
2023-10-21T05:03:52.167Z,10.50
2023-10-21T05:06:19.858Z,12.85
2023-10-21T05:08:47.462Z,13.93
2023-10-21T05:11:15.037Z,10.27
2023-10-21T05:13:43.161Z,9.70
2023-10-21T05:16:10.758Z,9.90
2023-10-21T05:18:37.998Z,18.35
2023-10-21T05:21:09.113Z,14.40
2023-10-21T05:23:36.730Z,8.75
2023-10-21T05:26:04.995Z,9.40
2023-10-21T05:28:32.568Z,11.57
2023-10-21T05:31:02.522Z,16.08
2023-10-21T05:33:30.267Z,14.30
2023-10-21T05:35:59.957Z,19.95
2023-10-21T05:38:27.785Z,23.15
2023-10-21T05:40:58.967Z,17.40
2023-10-21T05:43:26.548Z,14.70
2023-10-21T05:45:54.835Z,9.75
2023-10-21T05:48:22.640Z,8.32
2023-10-21T05:50:50.425Z,11.75
2023-10-21T05:53:17.811Z,14.75
2023-10-21T05:55:45.383Z,9.23
2023-10-21T05:58:14.389Z,17.77
2023-10-21T06:00:42.007Z,11.35
2023-10-21T06:03:09.480Z,13.00
2023-10-21T06:05:38.115Z,17.70
2023-10-21T06:08:05.920Z,22.90
2023-10-21T06:10:33.635Z,9.43
2023-10-21T06:13:00.868Z,8.50
2023-10-21T06:15:29.124Z,8.82
2023-10-21T06:17:56.435Z,11.15
2023-10-21T06:20:25.507Z,11.00
2023-10-21T06:22:55.183Z,8.90
2023-10-21T06:25:22.835Z,11.73
2023-10-21T06:27:50.221Z,18.20
2023-10-21T06:30:17.970Z,14.18
2023-10-21T06:32:45.271Z,10.75
2023-10-21T06:35:13.953Z,15.65
2023-10-21T06:37:45.057Z,11.10
2023-10-21T06:40:19.119Z,12.45
2023-10-21T06:42:57.401Z,8.50
2023-10-21T06:45:27.061Z,11.77
2023-10-21T06:47:55.022Z,16.98
2023-10-21T06:50:24.136Z,14.45
2023-10-21T06:52:53.566Z,11.93
2023-10-21T06:55:21.669Z,11.27
2023-10-21T06:57:48.996Z,16.20
2023-10-21T07:00:17.590Z,10.00
2023-10-21T07:02:45.023Z,11.30
2023-10-21T07:05:12.796Z,10.95
2023-10-21T07:07:43.391Z,10.10
2023-10-21T07:10:11.376Z,16.58
2023-10-21T07:12:40.196Z,17.63
2023-10-21T07:15:11.008Z,18.52
2023-10-21T07:17:38.428Z,28.63
2023-10-21T07:20:09.714Z,14.43
2023-10-21T07:22:37.576Z,18.73
2023-10-21T07:25:09.951Z,13.43
2023-10-21T07:27:38.781Z,15.05
2023-10-21T07:30:08.203Z,13.93
2023-10-21T07:32:35.516Z,15.27
2023-10-21T07:35:04.789Z,12.93
2023-10-21T07:37:32.620Z,14.50
2023-10-21T07:40:01.105Z,15.18
2023-10-21T07:42:28.624Z,17.55
2023-10-21T07:44:56.390Z,13.23
2023-10-21T07:47:24.174Z,19.60
2023-10-21T07:49:55.649Z,15.82
2023-10-21T07:52:24.222Z,11.82
2023-10-21T07:54:56.249Z,10.18
2023-10-21T07:57:24.071Z,12.68
2023-10-21T07:59:52.248Z,11.35
2023-10-21T08:02:48.298Z,8.85
2023-10-21T08:05:25.880Z,16.38
2023-10-21T08:07:59.250Z,12.50
2023-10-21T08:10:52.894Z,12.32
2023-10-21T08:13:35.536Z,14.50
2023-10-21T08:16:30.476Z,15.50
2023-10-21T08:19:00.054Z,11.52
2023-10-21T08:21:31.423Z,15.23
2023-10-21T08:24:01.214Z,16.35
2023-10-21T08:26:33.392Z,16.00
2023-10-21T08:29:10.514Z,12.48
2023-10-21T08:31:49.037Z,17.15
2023-10-21T08:34:16.407Z,14.45
2023-10-21T08:36:45.725Z,13.60
2023-10-21T08:39:14.210Z,13.18
2023-10-21T08:41:42.269Z,14.13
2023-10-21T08:44:10.180Z,11.07
2023-10-21T08:46:39.286Z,15.35
2023-10-21T08:49:09.918Z,19.55
2023-10-21T08:51:38.741Z,10.48
2023-10-21T08:54:08.380Z,13.75
2023-10-21T08:56:37.340Z,29.15
2023-10-21T08:59:07.052Z,16.42
2023-10-21T09:01:36.841Z,23.23
2023-10-21T09:04:04.875Z,15.70
2023-10-21T09:06:33.007Z,13.80
2023-10-21T09:09:01.775Z,18.13
2023-10-21T09:11:31.579Z,15.57
2023-10-21T09:14:00.383Z,15.10
2023-10-21T09:16:33.223Z,12.00
2023-10-21T09:19:08.847Z,23.75
2023-10-21T09:21:40.184Z,13.20
2023-10-21T09:24:10.902Z,17.27
2023-10-21T09:26:43.871Z,8.73
2023-10-21T09:29:13.131Z,19.63
2023-10-21T09:31:50.090Z,14.57
2023-10-21T09:34:33.357Z,30.27
2023-10-21T09:37:04.146Z,28.48
2023-10-21T09:39:39.552Z,14.93
2023-10-21T09:42:08.121Z,16.33
2023-10-21T09:44:36.655Z,9.85
2023-10-21T09:47:08.175Z,8.45
2023-10-21T09:49:41.857Z,15.60
2023-10-21T09:52:16.316Z,15.93
2023-10-21T09:54:51.058Z,12.68
2023-10-21T09:57:19.705Z,17.73
2023-10-21T09:59:48.523Z,16.10
2023-10-21T10:02:17.269Z,15.30
2023-10-21T10:04:45.060Z,16.42
2023-10-21T10:07:33.585Z,10.75
2023-10-21T10:10:08.929Z,15.20
2023-10-21T10:12:49.012Z,16.52
2023-10-21T10:15:34.045Z,16.67
2023-10-21T10:18:06.917Z,19.52
2023-10-21T10:20:59.598Z,19.33
2023-10-21T10:23:31.253Z,16.63
2023-10-21T10:25:59.498Z,18.35
2023-10-21T10:28:28.462Z,14.45
2023-10-21T10:30:58.189Z,16.08
2023-10-21T10:33:36.455Z,10.10
2023-10-21T10:36:40.071Z,14.95
2023-10-21T10:39:42.552Z,20.42
2023-10-21T10:42:14.278Z,10.45
2023-10-21T10:45:09.123Z,23.33
2023-10-21T10:47:41.089Z,27.23
2023-10-21T10:50:19.858Z,15.82
2023-10-21T10:53:06.221Z,22.35
2023-10-21T10:55:37.006Z,21.10
2023-10-21T10:58:10.040Z,18.48
2023-10-21T11:00:40.736Z,20.52
2023-10-21T11:03:20.196Z,20.20
2023-10-21T11:05:49.763Z,25.45
2023-10-21T11:08:19.405Z,14.70
2023-10-21T11:10:48.725Z,16.52
2023-10-21T11:13:25.833Z,19.65
2023-10-21T11:15:56.040Z,31.02
2023-10-21T11:18:28.151Z,21.35
2023-10-21T11:20:55.829Z,21.15
2023-10-21T11:23:29.533Z,21.73
2023-10-21T11:26:00.124Z,22.63
2023-10-21T11:28:33.686Z,29.02
2023-10-21T11:31:04.200Z,24.02
2023-10-21T11:33:31.786Z,21.02
2023-10-21T11:36:06.400Z,20.90
2023-10-21T11:38:36.346Z,18.48
2023-10-21T11:41:08.882Z,30.15
2023-10-21T11:43:36.491Z,16.48
2023-10-21T11:46:07.269Z,19.92
2023-10-21T11:48:34.558Z,21.25
2023-10-21T11:51:03.071Z,20.38
2023-10-21T11:53:33.005Z,26.52
2023-10-21T11:56:23.400Z,18.65
2023-10-21T11:59:09.822Z,23.35
2023-10-21T12:01:56.031Z,16.92
2023-10-21T12:04:41.907Z,20.88
2023-10-21T12:07:28.655Z,19.40
2023-10-21T12:10:14.417Z,21.92
2023-10-21T12:12:50.907Z,17.75
2023-10-21T12:15:41.516Z,20.33
2023-10-21T12:18:12.385Z,29.13
2023-10-21T12:20:45.764Z,20.83
2023-10-21T12:23:32.182Z,19.33
2023-10-21T12:26:18.932Z,16.63
2023-10-21T12:28:46.597Z,12.65
2023-10-21T12:31:32.454Z,24.02
2023-10-21T12:34:18.548Z,20.75
2023-10-21T12:37:04.223Z,22.45
2023-10-21T12:39:48.599Z,29.70
2023-10-21T12:42:22.967Z,14.40
2023-10-21T12:45:04.861Z,17.10
2023-10-21T12:47:32.175Z,27.50
2023-10-21T12:49:59.747Z,15.43
2023-10-21T12:52:27.082Z,18.05
2023-10-21T12:54:54.950Z,26.02
2023-10-21T12:57:22.726Z,22.88
2023-10-21T12:59:51.814Z,24.38
2023-10-21T13:02:19.335Z,23.20
2023-10-21T13:04:47.221Z,33.85
2023-10-21T13:07:14.585Z,23.98
2023-10-21T13:09:44.110Z,23.98
2023-10-21T13:12:15.962Z,24.48
2023-10-21T13:14:45.989Z,26.80
2023-10-21T13:17:13.690Z,17.35
2023-10-21T13:19:41.494Z,22.80
2023-10-21T13:22:09.091Z,18.95
2023-10-21T13:24:37.613Z,23.35
2023-10-21T13:27:06.360Z,25.40
2023-10-21T13:29:34.307Z,18.63
2023-10-21T13:32:10.650Z,20.38
2023-10-21T13:34:39.668Z,20.60
2023-10-21T13:37:08.700Z,25.67
2023-10-21T13:39:40.530Z,29.98
2023-10-21T13:42:17.443Z,21.55
2023-10-21T13:44:48.477Z,22.17
2023-10-21T13:47:19.797Z,28.70
2023-10-21T13:49:48.972Z,30.88
2023-10-21T13:52:22.232Z,19.63
2023-10-21T13:54:51.512Z,22.15
2023-10-21T14:00:33.502Z,21.45
2023-10-21T14:03:23.425Z,23.30
2023-10-21T14:05:53.475Z,21.95
2023-10-21T14:08:27.434Z,18.35
2023-10-21T14:10:57.075Z,29.67
2023-10-21T14:13:27.940Z,25.55
2023-10-21T14:16:06.217Z,23.90
2023-10-21T14:18:34.097Z,25.50
2023-10-21T14:21:02.014Z,22.83
2023-10-21T14:23:29.837Z,25.85
2023-10-21T14:26:01.582Z,19.17
2023-10-21T14:28:31.964Z,19.75
2023-10-21T14:31:01.482Z,20.90
2023-10-21T14:33:32.873Z,13.90
2023-10-21T14:36:07.543Z,21.55
2023-10-21T14:38:36.123Z,19.70
2023-10-21T14:41:11.211Z,25.80
2023-10-21T14:44:03.263Z,22.10
2023-10-21T14:46:31.670Z,18.55
2023-10-21T14:48:59.048Z,33.33
2023-10-21T14:51:27.856Z,34.10
2023-10-21T14:54:01.955Z,24.05
2023-10-21T14:56:32.983Z,19.50
2023-10-21T14:59:01.313Z,24.17
2023-10-21T15:01:29.551Z,22.08
2023-10-21T15:03:57.210Z,41.35
2023-10-21T15:06:31.851Z,28.40
2023-10-21T15:09:01.684Z,26.50
2023-10-21T15:11:31.815Z,26.55
2023-10-21T15:13:59.287Z,24.80
2023-10-21T15:16:26.924Z,22.48
2023-10-21T15:18:54.181Z,24.98
2023-10-21T15:21:22.708Z,17.05
2023-10-21T15:23:53.546Z,23.73
2023-10-21T15:27:13.098Z,19.83
2023-10-21T15:29:43.470Z,18.23
2023-10-21T15:32:14.702Z,19.02
2023-10-21T15:34:48.080Z,29.77
2023-10-21T15:37:16.232Z,26.60
2023-10-21T15:39:46.909Z,23.02
2023-10-21T15:42:17.270Z,21.23
2023-10-21T15:44:48.251Z,28.85
2023-10-21T15:47:17.012Z,20.00
2023-10-21T15:49:45.623Z,17.92
2023-10-21T15:52:18.973Z,19.80
2023-10-21T15:54:46.342Z,23.45
2023-10-21T15:57:14.462Z,17.55
2023-10-21T15:59:42.587Z,21.63
2023-10-21T16:02:11.347Z,25.52
2023-10-21T16:04:39.340Z,16.20
2023-10-21T16:07:07.025Z,29.63
2023-10-21T16:09:34.925Z,23.25
2023-10-21T16:12:02.635Z,41.03
2023-10-21T16:14:34.873Z,20.63
2023-10-21T16:17:02.867Z,32.95
2023-10-21T16:19:31.598Z,25.23
2023-10-21T16:21:59.257Z,22.30
2023-10-21T16:24:28.673Z,25.88
2023-10-21T16:26:56.712Z,18.67
2023-10-21T16:29:24.022Z,16.38
2023-10-21T16:31:54.315Z,17.08
2023-10-21T16:34:23.202Z,25.55
2023-10-21T16:36:51.318Z,29.15
2023-10-21T16:39:18.541Z,21.48
2023-10-21T16:41:46.431Z,28.33
2023-10-21T16:44:13.965Z,28.80
2023-10-21T16:46:44.740Z,17.63
2023-10-21T16:49:11.982Z,19.85
2023-10-21T16:51:39.636Z,23.85
2023-10-21T16:54:07.058Z,20.05
2023-10-21T16:56:34.743Z,31.35
2023-10-21T16:59:07.942Z,33.80
2023-10-21T17:01:35.818Z,21.30
2023-10-21T17:04:03.407Z,26.23
2023-10-21T17:06:32.458Z,29.55
2023-10-21T17:09:00.788Z,36.08
2023-10-21T17:11:28.479Z,22.48
2023-10-21T17:13:58.525Z,18.50
2023-10-21T17:16:26.108Z,37.42
2023-10-21T17:18:56.785Z,22.95
2023-10-21T17:21:26.902Z,28.77
2023-10-21T17:23:54.920Z,34.22
2023-10-21T17:26:22.982Z,21.35
2023-10-21T17:28:51.128Z,18.02
2023-10-21T17:31:21.182Z,26.40
2023-10-21T17:33:51.151Z,38.03
2023-10-21T17:36:21.918Z,20.70
2023-10-21T17:38:52.915Z,18.63
2023-10-21T17:41:20.700Z,41.50
2023-10-21T17:43:50.207Z,20.83
2023-10-21T17:46:19.242Z,19.40
2023-10-21T17:48:46.539Z,18.98
2023-10-21T17:51:15.948Z,42.05
2023-10-21T17:53:44.365Z,18.55
2023-10-21T17:56:13.018Z,15.25
2023-10-21T17:58:40.676Z,18.98
2023-10-21T18:01:10.802Z,19.48
2023-10-21T18:03:40.357Z,28.45
2023-10-21T18:06:08.245Z,25.48
2023-10-21T18:08:35.876Z,23.50
2023-10-21T18:11:03.368Z,21.15
2023-10-21T18:13:35.406Z,25.77
2023-10-21T18:16:04.567Z,17.92
2023-10-21T18:18:33.104Z,14.02
2023-10-21T18:21:00.786Z,24.42
2023-10-21T18:23:29.434Z,15.20
2023-10-21T18:26:06.339Z,26.98
2023-10-21T18:28:35.241Z,10.13
2023-10-21T18:31:06.207Z,16.48
2023-10-21T18:33:33.623Z,15.98
2023-10-21T18:36:04.183Z,10.38
2023-10-21T18:38:33.487Z,11.82
2023-10-21T18:41:02.085Z,31.27
2023-10-21T18:43:35.157Z,10.65
2023-10-21T18:46:09.326Z,14.65
2023-10-21T18:48:39.534Z,23.65
2023-10-21T18:51:14.432Z,10.63
2023-10-21T18:53:41.892Z,16.35
2023-10-21T18:56:11.947Z,6.75
2023-10-21T18:58:39.297Z,11.57
2023-10-21T19:01:07.452Z,7.85
2023-10-21T19:03:35.124Z,13.82
2023-10-21T19:06:02.686Z,10.18
2023-10-21T19:08:30.062Z,13.40
2023-10-21T19:10:57.744Z,10.90
2023-10-21T19:13:25.052Z,5.93
2023-10-21T19:15:54.012Z,7.88
2023-10-21T19:18:22.490Z,13.25
2023-10-21T19:20:58.792Z,12.90
2023-10-21T19:23:35.973Z,8.98
2023-10-21T19:26:06.912Z,5.80
2023-10-21T19:28:36.058Z,12.88
2023-10-21T19:31:15.297Z,6.93
2023-10-21T19:33:43.358Z,7.70
2023-10-21T19:36:12.811Z,7.15
2023-10-21T19:38:40.449Z,8.52
2023-10-21T19:41:10.958Z,10.00
2023-10-21T19:43:38.509Z,10.30
2023-10-21T19:46:08.040Z,10.45
2023-10-21T19:48:38.056Z,7.65
2023-10-21T19:51:15.614Z,9.40
2023-10-21T19:53:49.067Z,6.22
2023-10-21T19:56:17.355Z,13.85
2023-10-21T19:58:47.533Z,6.85
2023-10-21T20:01:19.525Z,12.90
2023-10-21T20:03:48.980Z,7.35
2023-10-21T20:06:19.607Z,6.45
2023-10-21T20:08:48.294Z,10.65
2023-10-21T20:11:23.583Z,8.05
2023-10-21T20:13:55.391Z,5.45
2023-10-21T20:16:29.172Z,9.02
2023-10-21T20:18:56.804Z,5.15
2023-10-21T20:21:24.643Z,6.75
2023-10-21T20:23:56.480Z,7.38
2023-10-21T20:26:24.712Z,4.10
2023-10-21T20:28:56.161Z,5.45
2023-10-21T20:31:25.496Z,4.30
2023-10-21T20:33:53.381Z,11.00
2023-10-21T20:36:24.355Z,6.28
2023-10-21T20:38:52.895Z,2.90
2023-10-21T20:41:21.493Z,3.75
2023-10-21T20:43:49.820Z,3.50
2023-10-21T20:46:43.354Z,4.55
2023-10-21T20:49:10.678Z,2.67
2023-10-21T20:51:38.337Z,4.82
2023-10-21T20:54:07.430Z,6.60
2023-10-21T20:56:37.483Z,2.33
2023-10-21T20:59:06.739Z,6.03
2023-10-21T21:01:37.900Z,8.75
2023-10-21T21:04:07.868Z,3.05
2023-10-21T21:06:38.176Z,4.05
2023-10-21T21:09:06.864Z,6.15
2023-10-21T21:11:36.017Z,4.57
2023-10-21T21:14:03.291Z,2.72
2023-10-21T21:16:31.220Z,3.78
2023-10-21T21:18:59.843Z,5.10
2023-10-21T21:21:28.041Z,5.38
2023-10-21T21:23:57.351Z,6.35
2023-10-21T21:26:25.558Z,4.45
2023-10-21T21:28:53.955Z,5.13
2023-10-21T21:31:23.137Z,11.13
2023-10-21T21:33:50.740Z,8.43
2023-10-21T21:36:21.766Z,5.85
2023-10-21T21:38:49.264Z,4.32
2023-10-21T21:41:21.260Z,3.25
2023-10-21T21:43:53.186Z,3.55
2023-10-21T21:46:21.977Z,2.33
2023-10-21T21:48:49.684Z,6.13
2023-10-21T21:51:17.607Z,5.22
2023-10-21T21:53:45.484Z,3.55
2023-10-21T21:56:13.132Z,7.00
2023-10-21T21:58:41.134Z,4.15
2023-10-21T22:01:08.835Z,3.95
2023-10-21T22:03:36.800Z,2.83
2023-10-21T22:06:05.678Z,4.32
2023-10-21T22:08:35.204Z,7.95
2023-10-21T22:11:10.433Z,4.13
2023-10-21T22:13:39.514Z,3.03
2023-10-21T22:16:09.821Z,3.70
2023-10-21T22:18:37.241Z,2.88
2023-10-21T22:21:07.720Z,3.22
2023-10-21T22:23:54.428Z,4.65
2023-10-21T22:26:32.154Z,6.30
2023-10-21T22:29:04.884Z,5.75
2023-10-21T22:31:34.580Z,2.97
2023-10-21T22:34:06.976Z,6.22
2023-10-21T22:36:39.180Z,5.20
2023-10-21T22:39:28.777Z,3.38
2023-10-21T22:41:58.007Z,6.22
2023-10-21T22:44:25.640Z,4.55
2023-10-21T22:46:54.294Z,5.30
2023-10-21T22:49:47.910Z,2.22
2023-10-21T22:52:19.077Z,2.33
2023-10-21T22:54:47.819Z,1.95
2023-10-21T22:57:15.594Z,3.10
2023-10-21T22:59:42.853Z,3.17
2023-10-21T23:02:10.468Z,2.08
2023-10-21T23:04:38.114Z,3.90
2023-10-21T23:07:10.292Z,3.45
2023-10-21T23:09:41.968Z,5.15
2023-10-21T23:12:19.736Z,4.47
2023-10-21T23:14:49.350Z,5.18
2023-10-21T23:17:18.789Z,4.43
2023-10-21T23:19:47.497Z,4.65
2023-10-21T23:22:15.738Z,3.20
2023-10-21T23:24:43.386Z,5.18
2023-10-21T23:27:14.632Z,2.55
2023-10-21T23:29:42.795Z,2.97
2023-10-21T23:32:21.274Z,2.35
2023-10-21T23:34:49.152Z,2.67
2023-10-21T23:37:18.084Z,2.65
2023-10-21T23:39:45.357Z,3.50
2023-10-21T23:42:15.440Z,2.97
2023-10-21T23:44:43.296Z,3.72
2023-10-21T23:47:10.907Z,3.80
2023-10-21T23:49:38.814Z,4.88
2023-10-21T23:52:07.810Z,4.78
2023-10-21T23:54:37.520Z,4.05
2023-10-21T23:57:07.649Z,5.30
2023-10-21T23:59:43.162Z,3.45
